VEILLE D'ORAGES VIOLENTS EN VIGUEUR

Rapports Métar

 

CWEW - L'assomption, Quebec, Canada
Distance de la station: SSE 46km
Mise à jour: 14/11/2018 23:00

 Vents de SO
Vent: SO 6 km/h
Température: -13°C
Point de rosée: -18°C
Humidité: 66%
2018/11/15 04:00 CWEW 150400Z AUTO 23003KT M13/M18 RMK AO1 SLP376 T11331175 53015
CWHM - Varennes, Quebec, Canada
Distance de la station: SSE 58km
Mise à jour: 25/10/2016 10:00
PAS à jour

 Vents de O
Vent: O 19 km/h, Rafale: 28 km/h
Température: 4°C
Refroidissement éolien: 0°C
Point de rosée: -2°C
Humidité: 65%
2016/10/25 14:00 CWHM 251400Z AUTO 28010G15KT 04/M02 RMK AO1 PK WND 28018/1302 T00391017
 
CWBS - Lac St Pierre (a, Quebec, Canada
Distance de la station: E 60km
Mise à jour: 14/11/2018 23:00

 Vents de OSO
Vent: OSO 20 km/h
Température: -8°C
Refroidissement éolien: -15°C
Point de rosée: -15°C
Humidité: 58%
2018/11/15 04:00 CWBS 150400Z AUTO 24011KT M08/M15 RMK AO1 T10841149
CYMX - Montreal/Mirabel, Quebec, Canada
Distance de la station: SSO 62km
Mise à jour: 14/11/2018 23:00
clair
clair
 Vents de OSO
Vent: OSO 6 km/h
Température: -12°C
Point de rosée: -16°C
Humidité: 72%
Baromètre: 1036.6 hPa
Nuages: clair
Visibilité: 40 km
2018/11/15 04:00 CYMX 150400Z 25003KT 25SM SKC M12/M16 A3061 RMK SLP374
 
CWJT - St Jovite (autob, Quebec, Canada
Distance de la station: OSO 64km
Mise à jour: 14/11/2018 23:00

 Vents de calm
Vent: calme
Température: -18°C
Point de rosée: -20°C
Humidité: 84%
2018/11/15 04:00 CWJT 150400Z AUTO 00000KT M18/M20 RMK AO1 SLP380 T11771195 53013
CWTA - Mc Tavish (aut), Quebec, Canada
Distance de la station: S 77km
Mise à jour: 14/11/2018 23:00

 Vents de NO
Vent: NO 2 km/h
Température: -9°C
Point de rosée: -16°C
Humidité: 57%
2018/11/15 04:00 CWTA 150400Z AUTO 31001KT M09/M16 RMK AO1 SLP368 T10911161 53010
 
CYHU - Saint Hubert Arp, Quebec, Canada
Distance de la station: SSE 77km
Mise à jour: 14/11/2018 23:00
clair
clair
 Vents de O
Vent: O 9 km/h
Température: -9°C
Refroidissement éolien: -14°C
Point de rosée: -16°C
Humidité: 57%
Baromètre: 1036.9 hPa
Nuages: clair
Visibilité: 14 km
2018/11/15 04:00 CYHU 150400Z AUTO 26005KT 9SM CLR M09/M16 A3062 RMK SLP371
CYUL - Montreal/Dorval, Quebec, Canada
Distance de la station: S 80km
Mise à jour: 14/11/2018 23:00
clair
clair
 Vents de OSO
Vent: OSO 11 km/h
Température: -10°C
Refroidissement éolien: -16°C
Point de rosée: -15°C
Humidité: 67%
Baromètre: 1036.6 hPa
Nuages: clair
Visibilité: 24 km
2018/11/15 04:00 CYUL 150400Z 25006KT 15SM SKC M10/M15 A3061 RMK SLP371
 
CWNQ - Nicolet (autob), Quebec, Canada
Distance de la station: E 81km
Mise à jour: 14/11/2018 23:00

 Vents de O
Vent: O 11 km/h
Température: -9°C
Refroidissement éolien: -14°C
Point de rosée: -17°C
Humidité: 53%
2018/11/15 04:00 CWNQ 150400Z AUTO 27006KT M09/M17 RMK AO1 SLP356 T10921171 53023
CWVQ - Ste Anne De Bell, Quebec, Canada
Distance de la station: S 87km
Mise à jour: 14/11/2018 23:00

 Vents de O
Vent: O 11 km/h
Température: -9°C
Refroidissement éolien: -14°C
Point de rosée: -15°C
Humidité: 62%
2018/11/15 04:00 CWVQ 150400Z AUTO 27006KT M09/M15 RMK AO1 SLP369 T10941151 52008
 
CWTY - Trois Rivieres, Quebec, Canada
Distance de la station: ENE 93km
Mise à jour: 14/11/2018 23:00

 Vents de OSO
Vent: OSO 7 km/h
Température: -10°C
Refroidissement éolien: -14°C
Point de rosée: -15°C
Humidité: 67%
2018/11/15 04:00 CWTY 150400Z AUTO 25004KT M10/M15 RMK AO1 SLP359 T11011152 53028
CXSH - Shawinigan, Quebec, Canada
Distance de la station: ENE 97km
Mise à jour: 14/11/2018 23:00

 Vents de SSO
Vent: SSO 4 km/h
Température: -12°C
Point de rosée: -17°C
Humidité: 67%
2018/11/15 04:00 CXSH 150400Z AUTO 20002KT M12/M17 RMK AO1 SLP350 T11181170 53026
 
CWIZ - L'acadie, Quebec, Canada
Distance de la station: SSE 104km
Mise à jour: 14/11/2018 23:00

 Vents de O
Vent: O 4 km/h
Température: -11°C
Point de rosée: -14°C
Humidité: 79%
2018/11/15 04:00 CWIZ 150400Z AUTO 26002KT M11/M14 RMK AO1 T11051144
CWIT - St Clothilde (a, Quebec, Canada
Distance de la station: S 113km
Mise à jour: 14/11/2018 23:00

 Vents de O
Vent: O 2 km/h
Température: -11°C
Point de rosée: -14°C
Humidité: 79%
2018/11/15 04:00 CWIT 150400Z AUTO 27001KT M11/M14 RMK AO1 3005 SLP360 T11081139 50003
 
CMGB - Granby, Quebec, Canada
Distance de la station: SE 116km
Mise à jour: 14/11/2018 23:45

 Vents de SSO
Vent: SSO 2 km/h
Température: -12°C
Point de rosée: -14°C
Humidité: 85%
2018/11/15 04:45 CMGB 150445Z AUTO 20001KT M12/M14 RMK AO1 SLP370 T11181142 53015
CWBZ - St Anicet, Quebec, Canada
Distance de la station: SSO 127km
Mise à jour: 14/11/2018 23:00

 Vents de S
Vent: S 2 km/h
Température: -12°C
Point de rosée: -15°C
Humidité: 79%
2018/11/15 04:00 CWBZ 150400Z AUTO 19001KT M12/M15 RMK AO1 SLP365 T11221146 50000
 
CWHQ - Deschambaults, Quebec, Canada
Distance de la station: ENE 144km
Mise à jour: 14/11/2018 23:00

 Vents de ONO
Vent: ONO 2 km/h
Température: -18°C
Point de rosée: -20°C
Humidité: 84%
2018/11/15 04:00 CWHQ 150400Z AUTO 30001KT M18/M20 RMK AO1 T11751200
CWFQ - Frelighsburg, Quebec, Canada
Distance de la station: SSE 145km
Mise à jour: 14/11/2018 23:00

 Vents de S
Vent: S 4 km/h
Température: -12°C
Point de rosée: -15°C
Humidité: 79%
2018/11/15 04:00 CWFQ 150400Z AUTO 19002KT M12/M15 RMK AO1 SOG 02 2011 SLP361 T11211149
 
KFSO - Highgate, Vermont, USA
Distance de la station: SSE 147km
Mise à jour: 14/11/2018 23:35
clair
clair
 Vents de calm
Vent: calme
Température: -12°C
Point de rosée: -15°C
Humidité: 79%
Baromètre: 1036.6 hPa
Nuages: clair
Visibilité: 16 km
2018/11/15 04:35 KFSO 150435Z AUTO 00000KT 10SM CLR M12/M15 A3061 RMK AO2 T11251146
CWDQ - La Tuque, Quebec, Canada
Distance de la station: NNE 154km
Mise à jour: 14/11/2018 23:00

 Vents de calm
Vent: calme
Température: -17°C
Point de rosée: -18°C
Humidité: 92%
2018/11/15 04:00 CWDQ 150400Z AUTO 00000KT M17/M18 RMK AO1 SOG 06 3012 SLP349 T11711175